sensor_id;sensor_type;location;lat;lon;timestamp;pressure;altitude;pressure_sealevel;temperature;humidity
72096;BME280;59968;51.084;16.748;2024-01-30T00:01:48;101803.85;;;4.03;62.54
72096;BME280;59968;51.084;16.748;2024-01-30T00:04:21;101801.77;;;4.08;62.56
72096;BME280;59968;51.084;16.748;2024-01-30T00:06:51;101797.58;;;4.18;62.50
72096;BME280;59968;51.084;16.748;2024-01-30T00:09:26;101801.27;;;4.33;62.50
72096;BME280;59968;51.084;16.748;2024-01-30T00:11:57;101805.21;;;4.46;62.52
72096;BME280;59968;51.084;16.748;2024-01-30T00:14:28;101798.39;;;4.62;62.26
72096;BME280;59968;51.084;16.748;2024-01-30T00:16:59;101799.46;;;4.77;61.89
72096;BME280;59968;51.084;16.748;2024-01-30T00:19:31;101792.66;;;4.92;61.62
72096;BME280;59968;51.084;16.748;2024-01-30T00:22:02;101797.64;;;5.08;61.20
72096;BME280;59968;51.084;16.748;2024-01-30T00:24:33;101798.54;;;5.23;60.84
72096;BME280;59968;51.084;16.748;2024-01-30T00:27:04;101803.73;;;5.38;60.41
72096;BME280;59968;51.084;16.748;2024-01-30T00:29:34;101803.13;;;5.47;60.52
72096;BME280;59968;51.084;16.748;2024-01-30T00:32:06;101803.23;;;5.52;60.40
72096;BME280;59968;51.084;16.748;2024-01-30T00:34:37;101797.95;;;5.52;60.40
72096;BME280;59968;51.084;16.748;2024-01-30T00:37:09;101796.98;;;5.51;60.35
72096;BME280;59968;51.084;16.748;2024-01-30T00:39:40;101798.88;;;5.49;60.36
72096;BME280;59968;51.084;16.748;2024-01-30T00:42:10;101799.23;;;5.47;60.29
72096;BME280;59968;51.084;16.748;2024-01-30T00:44:42;101797.67;;;5.45;60.32
72096;BME280;59968;51.084;16.748;2024-01-30T00:47:11;101798.02;;;5.43;60.42
72096;BME280;59968;51.084;16.748;2024-01-30T00:49:40;101800.31;;;5.42;60.34
72096;BME280;59968;51.084;16.748;2024-01-30T00:52:11;101795.02;;;5.39;60.38
72096;BME280;59968;51.084;16.748;2024-01-30T00:54:40;101791.39;;;5.36;60.39
72096;BME280;59968;51.084;16.748;2024-01-30T00:57:09;101788.54;;;5.36;60.43
72096;BME280;59968;51.084;16.748;2024-01-30T00:59:38;101789.02;;;5.37;60.40
72096;BME280;59968;51.084;16.748;2024-01-30T01:02:08;101791.15;;;5.36;60.50
72096;BME280;59968;51.084;16.748;2024-01-30T01:04:36;101793.71;;;5.34;60.54
72096;BME280;59968;51.084;16.748;2024-01-30T01:07:05;101803.00;;;5.38;60.37
72096;BME280;59968;51.084;16.748;2024-01-30T01:09:34;101799.59;;;5.38;60.36
72096;BME280;59968;51.084;16.748;2024-01-30T01:12:03;101794.73;;;5.45;60.21
72096;BME280;59968;51.084;16.748;2024-01-30T01:14:32;101793.32;;;5.50;60.01
72096;BME280;59968;51.084;16.748;2024-01-30T01:17:00;101799.00;;;5.54;59.77
72096;BME280;59968;51.084;16.748;2024-01-30T01:19:29;101795.13;;;5.55;59.78
72096;BME280;59968;51.084;16.748;2024-01-30T01:21:57;101797.73;;;5.57;59.81
72096;BME280;59968;51.084;16.748;2024-01-30T01:24:26;101797.86;;;5.55;59.74
72096;BME280;59968;51.084;16.748;2024-01-30T01:26:55;101796.54;;;5.55;59.65
72096;BME280;59968;51.084;16.748;2024-01-30T01:29:25;101790.18;;;5.55;59.61
72096;BME280;59968;51.084;16.748;2024-01-30T01:31:58;101788.66;;;5.55;59.55
72096;BME280;59968;51.084;16.748;2024-01-30T01:34:26;101784.21;;;5.54;59.48
72096;BME280;59968;51.084;16.748;2024-01-30T01:36:58;101786.92;;;5.55;59.52
72096;BME280;59968;51.084;16.748;2024-01-30T01:39:27;101788.14;;;5.55;59.50
72096;BME280;59968;51.084;16.748;2024-01-30T01:41:55;101789.63;;;5.55;59.48
72096;BME280;59968;51.084;16.748;2024-01-30T01:44:24;101785.86;;;5.55;59.56
72096;BME280;59968;51.084;16.748;2024-01-30T01:46:54;101792.54;;;5.55;59.41
72096;BME280;59968;51.084;16.748;2024-01-30T01:49:24;101788.58;;;5.54;59.46
72096;BME280;59968;51.084;16.748;2024-01-30T01:51:55;101790.69;;;5.55;59.39
72096;BME280;59968;51.084;16.748;2024-01-30T01:54:28;101785.31;;;5.51;59.40
72096;BME280;59968;51.084;16.748;2024-01-30T01:56:57;101779.16;;;5.51;59.40
72096;BME280;59968;51.084;16.748;2024-01-30T01:59:26;101776.77;;;5.53;59.42
72096;BME280;59968;51.084;16.748;2024-01-30T02:01:55;101779.41;;;5.54;59.53
72096;BME280;59968;51.084;16.748;2024-01-30T02:04:24;101777.31;;;5.55;59.43
72096;BME280;59968;51.084;16.748;2024-01-30T02:06:53;101771.15;;;5.57;59.35
72096;BME280;59968;51.084;16.748;2024-01-30T02:09:22;101770.96;;;5.59;59.44
72096;BME280;59968;51.084;16.748;2024-01-30T02:12:11;101769.34;;;5.60;59.38
72096;BME280;59968;51.084;16.748;2024-01-30T02:14:50;101769.08;;;5.61;59.42
72096;BME280;59968;51.084;16.748;2024-01-30T02:17:40;101768.10;;;5.58;59.64
72096;BME280;59968;51.084;16.748;2024-01-30T02:20:08;101765.95;;;5.57;59.83
72096;BME280;59968;51.084;16.748;2024-01-30T02:22:45;101764.55;;;5.58;59.52
72096;BME280;59968;51.084;16.748;2024-01-30T02:25:14;101767.34;;;5.55;59.44
72096;BME280;59968;51.084;16.748;2024-01-30T02:27:47;101763.27;;;5.52;59.35
72096;BME280;59968;51.084;16.748;2024-01-30T02:30:15;101767.02;;;5.50;59.29
72096;BME280;59968;51.084;16.748;2024-01-30T02:32:44;101762.66;;;5.47;59.20
72096;BME280;59968;51.084;16.748;2024-01-30T02:35:14;101768.63;;;5.46;59.18
72096;BME280;59968;51.084;16.748;2024-01-30T02:37:46;101767.63;;;5.45;59.11
72096;BME280;59968;51.084;16.748;2024-01-30T02:40:15;101767.27;;;5.49;58.77
72096;BME280;59968;51.084;16.748;2024-01-30T02:42:44;101776.95;;;5.53;58.79
72096;BME280;59968;51.084;16.748;2024-01-30T02:45:13;101775.59;;;5.55;58.49
72096;BME280;59968;51.084;16.748;2024-01-30T02:47:42;101780.29;;;5.56;58.36
72096;BME280;59968;51.084;16.748;2024-01-30T02:50:11;101783.29;;;5.57;58.24
72096;BME280;59968;51.084;16.748;2024-01-30T02:52:39;101778.98;;;5.55;58.14
72096;BME280;59968;51.084;16.748;2024-01-30T02:55:08;101784.27;;;5.53;58.11
72096;BME280;59968;51.084;16.748;2024-01-30T02:57:39;101784.77;;;5.51;58.12
72096;BME280;59968;51.084;16.748;2024-01-30T03:00:11;101781.97;;;5.50;58.03
72096;BME280;59968;51.084;16.748;2024-01-30T03:02:46;101781.80;;;5.46;58.00
72096;BME280;59968;51.084;16.748;2024-01-30T03:05:30;101781.37;;;5.41;57.96
72096;BME280;59968;51.084;16.748;2024-01-30T03:08:04;101782.27;;;5.34;57.97
72096;BME280;59968;51.084;16.748;2024-01-30T03:10:33;101772.45;;;5.19;58.07
72096;BME280;59968;51.084;16.748;2024-01-30T03:13:02;101783.33;;;5.20;58.17
72096;BME280;59968;51.084;16.748;2024-01-30T03:15:37;101787.86;;;5.14;58.21
72096;BME280;59968;51.084;16.748;2024-01-30T03:18:07;101789.36;;;5.08;58.25
72096;BME280;59968;51.084;16.748;2024-01-30T03:20:40;101792.95;;;5.04;58.35
72096;BME280;59968;51.084;16.748;2024-01-30T03:23:11;101788.87;;;4.97;58.44
72096;BME280;59968;51.084;16.748;2024-01-30T03:25:40;101787.75;;;4.89;58.46
72096;BME280;59968;51.084;16.748;2024-01-30T03:28:09;101772.98;;;4.79;58.63
72096;BME280;59968;51.084;16.748;2024-01-30T03:30:41;101776.23;;;4.77;58.90
72096;BME280;59968;51.084;16.748;2024-01-30T03:33:12;101774.14;;;4.73;59.05
72096;BME280;59968;51.084;16.748;2024-01-30T03:35:44;101771.27;;;4.70;58.96
72096;BME280;59968;51.084;16.748;2024-01-30T03:38:12;101768.66;;;4.64;58.81
72096;BME280;59968;51.084;16.748;2024-01-30T03:40:40;101763.70;;;4.54;58.77
72096;BME280;59968;51.084;16.748;2024-01-30T03:43:09;101764.63;;;4.46;58.87
72096;BME280;59968;51.084;16.748;2024-01-30T03:45:38;101766.14;;;4.38;58.78
72096;BME280;59968;51.084;16.748;2024-01-30T03:48:07;101762.49;;;4.27;58.92
72096;BME280;59968;51.084;16.748;2024-01-30T03:50:35;101762.20;;;4.15;59.11
72096;BME280;59968;51.084;16.748;2024-01-30T03:53:04;101759.91;;;4.07;59.56
72096;BME280;59968;51.084;16.748;2024-01-30T03:55:32;101762.96;;;4.00;59.87
72096;BME280;59968;51.084;16.748;2024-01-30T03:58:01;101757.70;;;3.95;60.11
72096;BME280;59968;51.084;16.748;2024-01-30T04:00:30;101760.19;;;3.93;60.30
72096;BME280;59968;51.084;16.748;2024-01-30T04:02:58;101759.44;;;3.94;60.31
72096;BME280;59968;51.084;16.748;2024-01-30T04:05:27;101756.89;;;3.94;60.31
72096;BME280;59968;51.084;16.748;2024-01-30T04:07:55;101755.15;;;3.89;60.33
72096;BME280;59968;51.084;16.748;2024-01-30T04:10:24;101754.30;;;3.85;60.47
72096;BME280;59968;51.084;16.748;2024-01-30T04:12:55;101754.92;;;3.83;60.55
72096;BME280;59968;51.084;16.748;2024-01-30T04:15:24;101758.96;;;3.80;60.66
72096;BME280;59968;51.084;16.748;2024-01-30T04:17:52;101762.28;;;3.79;60.84
72096;BME280;59968;51.084;16.748;2024-01-30T04:20:21;101757.08;;;3.77;60.97
72096;BME280;59968;51.084;16.748;2024-01-30T04:22:49;101758.63;;;3.77;60.96
72096;BME280;59968;51.084;16.748;2024-01-30T04:25:17;101759.46;;;3.75;60.97
72096;BME280;59968;51.084;16.748;2024-01-30T04:27:46;101762.05;;;3.72;61.09
72096;BME280;59968;51.084;16.748;2024-01-30T04:30:15;101763.20;;;3.73;61.13
72096;BME280;59968;51.084;16.748;2024-01-30T04:32:43;101758.94;;;3.73;61.17
72096;BME280;59968;51.084;16.748;2024-01-30T04:35:13;101759.31;;;3.73;61.18
72096;BME280;59968;51.084;16.748;2024-01-30T04:37:42;101763.00;;;3.73;61.40
72096;BME280;59968;51.084;16.748;2024-01-30T04:40:11;101763.31;;;3.72;61.41
72096;BME280;59968;51.084;16.748;2024-01-30T04:42:39;101761.50;;;3.68;61.42
72096;BME280;59968;51.084;16.748;2024-01-30T04:45:09;101763.64;;;3.67;61.48
72096;BME280;59968;51.084;16.748;2024-01-30T04:47:37;101764.20;;;3.64;61.62
72096;BME280;59968;51.084;16.748;2024-01-30T04:50:07;101767.69;;;3.65;61.57
72096;BME280;59968;51.084;16.748;2024-01-30T04:52:37;101764.20;;;3.62;61.31
72096;BME280;59968;51.084;16.748;2024-01-30T04:55:06;101761.28;;;3.57;61.48
72096;BME280;59968;51.084;16.748;2024-01-30T04:57:34;101770.25;;;3.51;61.30
72096;BME280;59968;51.084;16.748;2024-01-30T05:00:04;101773.92;;;3.43;61.47
72096;BME280;59968;51.084;16.748;2024-01-30T05:02:33;101774.02;;;3.37;61.66
72096;BME280;59968;51.084;16.748;2024-01-30T05:05:02;101770.10;;;3.32;61.79
72096;BME280;59968;51.084;16.748;2024-01-30T05:07:31;101771.80;;;3.29;61.86
72096;BME280;59968;51.084;16.748;2024-01-30T05:10:00;101775.42;;;3.26;61.86
72096;BME280;59968;51.084;16.748;2024-01-30T05:12:32;101770.30;;;3.16;62.19
72096;BME280;59968;51.084;16.748;2024-01-30T05:15:01;101782.58;;;3.22;62.39
72096;BME280;59968;51.084;16.748;2024-01-30T05:17:30;101781.54;;;3.20;62.51
72096;BME280;59968;51.084;16.748;2024-01-30T05:19:58;101782.53;;;3.20;62.53
72096;BME280;59968;51.084;16.748;2024-01-30T05:22:28;101779.05;;;3.18;62.29
72096;BME280;59968;51.084;16.748;2024-01-30T05:24:56;101772.05;;;3.16;62.60
72096;BME280;59968;51.084;16.748;2024-01-30T05:27:25;101777.38;;;3.18;62.84
72096;BME280;59968;51.084;16.748;2024-01-30T05:29:54;101775.13;;;3.18;62.70
72096;BME280;59968;51.084;16.748;2024-01-30T05:32:22;101778.20;;;3.18;62.60
72096;BME280;59968;51.084;16.748;2024-01-30T05:34:51;101772.02;;;3.14;62.54
72096;BME280;59968;51.084;16.748;2024-01-30T05:37:20;101773.48;;;3.08;62.59
72096;BME280;59968;51.084;16.748;2024-01-30T05:39:49;101772.77;;;3.01;62.71
72096;BME280;59968;51.084;16.748;2024-01-30T05:42:18;101769.98;;;2.96;62.80
72096;BME280;59968;51.084;16.748;2024-01-30T05:44:47;101776.95;;;2.92;63.19
72096;BME280;59968;51.084;16.748;2024-01-30T05:47:17;101775.98;;;2.91;63.14
72096;BME280;59968;51.084;16.748;2024-01-30T05:49:45;101774.98;;;2.88;63.05
72096;BME280;59968;51.084;16.748;2024-01-30T05:52:14;101775.08;;;2.79;63.18
72096;BME280;59968;51.084;16.748;2024-01-30T05:54:43;101775.08;;;2.82;63.35
72096;BME280;59968;51.084;16.748;2024-01-30T05:57:12;101772.42;;;2.86;63.46
72096;BME280;59968;51.084;16.748;2024-01-30T05:59:41;101774.66;;;2.83;63.52
72096;BME280;59968;51.084;16.748;2024-01-30T06:02:12;101777.81;;;2.82;63.61
72096;BME280;59968;51.084;16.748;2024-01-30T06:04:41;101777.10;;;2.87;63.43
72096;BME280;59968;51.084;16.748;2024-01-30T06:07:10;101775.41;;;2.87;63.53
72096;BME280;59968;51.084;16.748;2024-01-30T06:09:38;101778.99;;;2.82;63.43
72096;BME280;59968;51.084;16.748;2024-01-30T06:12:08;101773.84;;;2.80;63.34
72096;BME280;59968;51.084;16.748;2024-01-30T06:14:36;101772.08;;;2.78;63.27
72096;BME280;59968;51.084;16.748;2024-01-30T06:17:05;101767.73;;;2.74;63.05
72096;BME280;59968;51.084;16.748;2024-01-30T06:19:34;101771.94;;;2.65;63.09
72096;BME280;59968;51.084;16.748;2024-01-30T06:22:03;101770.46;;;2.62;63.25
72096;BME280;59968;51.084;16.748;2024-01-30T06:24:31;101772.39;;;2.53;63.56
72096;BME280;59968;51.084;16.748;2024-01-30T06:27:02;101774.63;;;2.48;63.59
72096;BME280;59968;51.084;16.748;2024-01-30T06:29:31;101776.56;;;2.45;63.90
72096;BME280;59968;51.084;16.748;2024-01-30T06:31:59;101775.92;;;2.46;63.95
72096;BME280;59968;51.084;16.748;2024-01-30T06:34:29;101775.30;;;2.48;63.93
72096;BME280;59968;51.084;16.748;2024-01-30T06:36:57;101775.71;;;2.47;63.88
72096;BME280;59968;51.084;16.748;2024-01-30T06:39:27;101771.59;;;2.48;64.12
72096;BME280;59968;51.084;16.748;2024-01-30T06:41:55;101772.34;;;2.44;64.29
72096;BME280;59968;51.084;16.748;2024-01-30T06:44:23;101774.83;;;2.43;64.37
72096;BME280;59968;51.084;16.748;2024-01-30T06:46:52;101772.98;;;2.42;64.53
72096;BME280;59968;51.084;16.748;2024-01-30T06:49:21;101775.54;;;2.45;64.52
72096;BME280;59968;51.084;16.748;2024-01-30T06:51:50;101776.63;;;2.46;64.58
72096;BME280;59968;51.084;16.748;2024-01-30T06:54:19;101778.67;;;2.49;64.43
72096;BME280;59968;51.084;16.748;2024-01-30T06:56:47;101778.68;;;2.49;64.44
72096;BME280;59968;51.084;16.748;2024-01-30T06:59:16;101778.16;;;2.54;64.38
72096;BME280;59968;51.084;16.748;2024-01-30T07:01:44;101777.11;;;2.57;64.51
72096;BME280;59968;51.084;16.748;2024-01-30T07:04:13;101778.91;;;2.61;64.86
72096;BME280;59968;51.084;16.748;2024-01-30T07:06:42;101768.61;;;2.67;65.04
72096;BME280;59968;51.084;16.748;2024-01-30T07:09:12;101775.46;;;2.79;64.83
72096;BME280;59968;51.084;16.748;2024-01-30T07:11:42;101775.71;;;2.88;64.52
72096;BME280;59968;51.084;16.748;2024-01-30T07:14:11;101780.24;;;2.96;64.44
72096;BME280;59968;51.084;16.748;2024-01-30T07:16:39;101777.92;;;3.00;64.48
72096;BME280;59968;51.084;16.748;2024-01-30T07:19:08;101780.80;;;3.03;64.31
72096;BME280;59968;51.084;16.748;2024-01-30T07:21:38;101779.85;;;3.04;64.17
72096;BME280;59968;51.084;16.748;2024-01-30T07:24:09;101782.31;;;3.11;64.23
72096;BME280;59968;51.084;16.748;2024-01-30T07:26:38;101785.02;;;3.19;64.05
72096;BME280;59968;51.084;16.748;2024-01-30T07:29:06;101787.39;;;3.21;64.27
72096;BME280;59968;51.084;16.748;2024-01-30T07:31:35;101788.64;;;3.28;64.12
72096;BME280;59968;51.084;16.748;2024-01-30T07:34:04;101793.70;;;3.36;64.12
72096;BME280;59968;51.084;16.748;2024-01-30T07:36:32;101789.64;;;3.43;63.96
72096;BME280;59968;51.084;16.748;2024-01-30T07:39:02;101789.50;;;3.50;63.78
72096;BME280;59968;51.084;16.748;2024-01-30T07:41:32;101792.41;;;3.57;63.72
72096;BME280;59968;51.084;16.748;2024-01-30T07:44:01;101791.24;;;3.66;63.65
72096;BME280;59968;51.084;16.748;2024-01-30T07:46:30;101794.36;;;3.77;63.47
72096;BME280;59968;51.084;16.748;2024-01-30T07:48:58;101794.60;;;3.84;63.42
72096;BME280;59968;51.084;16.748;2024-01-30T07:51:29;101787.11;;;3.88;63.62
72096;BME280;59968;51.084;16.748;2024-01-30T07:54:00;101786.88;;;3.91;63.54
72096;BME280;59968;51.084;16.748;2024-01-30T07:56:29;101795.81;;;4.07;63.60
72096;BME280;59968;51.084;16.748;2024-01-30T07:58:58;101794.98;;;4.18;63.48
72096;BME280;59968;51.084;16.748;2024-01-30T08:01:26;101794.77;;;4.25;63.38
72096;BME280;59968;51.084;16.748;2024-01-30T08:03:56;101799.92;;;4.35;63.71
72096;BME280;59968;51.084;16.748;2024-01-30T08:06:25;101799.52;;;4.45;63.84
72096;BME280;59968;51.084;16.748;2024-01-30T08:08:54;101793.61;;;4.53;64.05
72096;BME280;59968;51.084;16.748;2024-01-30T08:11:23;101793.09;;;4.59;64.26
72096;BME280;59968;51.084;16.748;2024-01-30T08:13:54;101788.41;;;4.70;64.20
72096;BME280;59968;51.084;16.748;2024-01-30T08:16:23;101784.48;;;4.81;63.96
72096;BME280;59968;51.084;16.748;2024-01-30T08:18:52;101783.57;;;4.92;63.88
72096;BME280;59968;51.084;16.748;2024-01-30T08:21:24;101778.41;;;5.04;63.83
72096;BME280;59968;51.084;16.748;2024-01-30T08:23:53;101776.11;;;5.18;63.68
72096;BME280;59968;51.084;16.748;2024-01-30T08:26:22;101780.53;;;5.29;63.52
72096;BME280;59968;51.084;16.748;2024-01-30T08:28:51;101779.44;;;5.43;63.34
72096;BME280;59968;51.084;16.748;2024-01-30T08:31:22;101774.48;;;5.54;63.23
72096;BME280;59968;51.084;16.748;2024-01-30T08:33:52;101773.66;;;5.64;63.10
72096;BME280;59968;51.084;16.748;2024-01-30T08:36:20;101772.66;;;5.76;62.84
72096;BME280;59968;51.084;16.748;2024-01-30T08:38:49;101776.77;;;5.88;62.62
72096;BME280;59968;51.084;16.748;2024-01-30T08:41:27;101778.92;;;6.01;62.25
72096;BME280;59968;51.084;16.748;2024-01-30T08:43:57;101778.34;;;6.13;62.15
72096;BME280;59968;51.084;16.748;2024-01-30T08:46:26;101771.95;;;6.28;62.07
72096;BME280;59968;51.084;16.748;2024-01-30T08:48:55;101769.96;;;6.41;61.54
72096;BME280;59968;51.084;16.748;2024-01-30T08:51:25;101773.25;;;6.53;61.18
72096;BME280;59968;51.084;16.748;2024-01-30T08:53:54;101772.32;;;6.64;60.61
72096;BME280;59968;51.084;16.748;2024-01-30T08:56:22;101771.71;;;6.80;59.98
72096;BME280;59968;51.084;16.748;2024-01-30T08:58:51;101752.79;;;6.73;59.73
72096;BME280;59968;51.084;16.748;2024-01-30T09:01:20;101776.27;;;6.98;59.55
72096;BME280;59968;51.084;16.748;2024-01-30T09:03:49;101775.95;;;7.12;59.11
72096;BME280;59968;51.084;16.748;2024-01-30T09:06:18;101775.71;;;7.21;58.92
72096;BME280;59968;51.084;16.748;2024-01-30T09:08:47;101774.86;;;7.37;58.41
72096;BME280;59968;51.084;16.748;2024-01-30T09:11:16;101774.80;;;7.51;58.00
72096;BME280;59968;51.084;16.748;2024-01-30T09:13:44;101770.56;;;7.64;58.11
72096;BME280;59968;51.084;16.748;2024-01-30T09:16:13;101772.16;;;7.77;58.69
72096;BME280;59968;51.084;16.748;2024-01-30T09:18:44;101771.10;;;7.89;58.37
72096;BME280;59968;51.084;16.748;2024-01-30T09:21:13;101766.77;;;8.01;57.88
72096;BME280;59968;51.084;16.748;2024-01-30T09:23:42;101768.16;;;8.14;57.90
72096;BME280;59968;51.084;16.748;2024-01-30T09:26:11;101766.76;;;8.27;57.40
72096;BME280;59968;51.084;16.748;2024-01-30T09:28:41;101758.29;;;8.39;56.58
72096;BME280;59968;51.084;16.748;2024-01-30T09:31:12;101758.35;;;8.46;56.30
72096;BME280;59968;51.084;16.748;2024-01-30T09:33:41;101756.55;;;8.56;56.10
72096;BME280;59968;51.084;16.748;2024-01-30T09:36:10;101751.77;;;8.67;56.06
72096;BME280;59968;51.084;16.748;2024-01-30T09:38:39;101747.75;;;8.76;55.75
72096;BME280;59968;51.084;16.748;2024-01-30T09:41:09;101743.08;;;8.86;55.42
72096;BME280;59968;51.084;16.748;2024-01-30T09:43:39;101745.44;;;8.95;54.86
72096;BME280;59968;51.084;16.748;2024-01-30T09:46:12;101736.81;;;9.04;54.60
72096;BME280;59968;51.084;16.748;2024-01-30T09:48:42;101738.75;;;9.09;54.10
72096;BME280;59968;51.084;16.748;2024-01-30T09:51:14;101729.50;;;9.16;53.88
72096;BME280;59968;51.084;16.748;2024-01-30T09:53:43;101733.89;;;9.28;53.17
72096;BME280;59968;51.084;16.748;2024-01-30T09:56:13;101734.23;;;9.37;53.10
72096;BME280;59968;51.084;16.748;2024-01-30T09:58:42;101736.70;;;9.44;52.85
72096;BME280;59968;51.084;16.748;2024-01-30T10:01:11;101732.04;;;9.47;52.60
72096;BME280;59968;51.084;16.748;2024-01-30T10:03:40;101731.05;;;9.59;52.36
72096;BME280;59968;51.084;16.748;2024-01-30T10:06:10;101729.73;;;9.70;51.95
72096;BME280;59968;51.084;16.748;2024-01-30T10:08:39;101726.45;;;9.77;51.57
72096;BME280;59968;51.084;16.748;2024-01-30T10:11:09;101724.34;;;9.84;51.54
72096;BME280;59968;51.084;16.748;2024-01-30T10:13:39;101721.94;;;9.95;51.40
72096;BME280;59968;51.084;16.748;2024-01-30T10:16:08;101718.48;;;10.08;50.97
72096;BME280;59968;51.084;16.748;2024-01-30T10:18:37;101718.68;;;10.13;50.91
72096;BME280;59968;51.084;16.748;2024-01-30T10:21:09;101715.77;;;10.23;50.74
72096;BME280;59968;51.084;16.748;2024-01-30T10:23:44;101713.73;;;10.31;50.56
72096;BME280;59968;51.084;16.748;2024-01-30T10:26:16;101710.95;;;10.45;50.46
72096;BME280;59968;51.084;16.748;2024-01-30T10:28:45;101713.11;;;10.54;50.10
72096;BME280;59968;51.084;16.748;2024-01-30T10:31:18;101710.28;;;10.63;49.79
72096;BME280;59968;51.084;16.748;2024-01-30T10:33:47;101705.13;;;10.73;49.58
72096;BME280;59968;51.084;16.748;2024-01-30T10:36:17;101705.80;;;10.81;49.40
72096;BME280;59968;51.084;16.748;2024-01-30T10:38:49;101704.68;;;10.90;49.42
72096;BME280;59968;51.084;16.748;2024-01-30T10:41:24;101697.44;;;10.97;49.26
72096;BME280;59968;51.084;16.748;2024-01-30T10:44:02;101698.89;;;11.06;49.13
72096;BME280;59968;51.084;16.748;2024-01-30T10:46:35;101696.77;;;11.11;48.89
72096;BME280;59968;51.084;16.748;2024-01-30T10:49:06;101691.98;;;11.17;48.78
72096;BME280;59968;51.084;16.748;2024-01-30T10:51:37;101692.02;;;11.23;48.65
72096;BME280;59968;51.084;16.748;2024-01-30T10:54:09;101688.91;;;11.31;48.55
72096;BME280;59968;51.084;16.748;2024-01-30T10:56:39;101687.77;;;11.40;48.21
72096;BME280;59968;51.084;16.748;2024-01-30T10:59:10;101683.48;;;11.44;47.99
72096;BME280;59968;51.084;16.748;2024-01-30T11:01:40;101682.34;;;11.52;47.39
72096;BME280;59968;51.084;16.748;2024-01-30T11:04:09;101675.08;;;11.61;46.93
72096;BME280;59968;51.084;16.748;2024-01-30T11:06:42;101670.30;;;11.64;46.89
72096;BME280;59968;51.084;16.748;2024-01-30T11:09:11;101665.91;;;11.71;46.54
72096;BME280;59968;51.084;16.748;2024-01-30T11:11:57;101666.40;;;11.80;46.60
72096;BME280;59968;51.084;16.748;2024-01-30T11:14:30;101658.20;;;11.86;46.56
72096;BME280;59968;51.084;16.748;2024-01-30T11:16:59;101655.45;;;11.91;46.34
72096;BME280;59968;51.084;16.748;2024-01-30T11:19:31;101652.80;;;11.96;46.17
72096;BME280;59968;51.084;16.748;2024-01-30T11:22:01;101649.36;;;12.05;46.11
72096;BME280;59968;51.084;16.748;2024-01-30T11:24:30;101643.05;;;12.12;45.84
72096;BME280;59968;51.084;16.748;2024-01-30T11:26:59;101644.64;;;12.15;45.87
72096;BME280;59968;51.084;16.748;2024-01-30T11:29:28;101647.19;;;12.20;46.21
72096;BME280;59968;51.084;16.748;2024-01-30T11:31:58;101645.05;;;12.27;45.85
72096;BME280;59968;51.084;16.748;2024-01-30T11:34:28;101646.43;;;12.32;45.71
72096;BME280;59968;51.084;16.748;2024-01-30T11:37:02;101644.34;;;12.37;45.49
72096;BME280;59968;51.084;16.748;2024-01-30T11:39:32;101636.96;;;12.44;45.33
72096;BME280;59968;51.084;16.748;2024-01-30T11:42:01;101636.88;;;12.46;45.31
72096;BME280;59968;51.084;16.748;2024-01-30T11:44:33;101627.86;;;12.45;45.12
72096;BME280;59968;51.084;16.748;2024-01-30T11:47:02;101632.39;;;12.43;45.06
72096;BME280;59968;51.084;16.748;2024-01-30T11:49:32;101630.54;;;12.30;45.12
72096;BME280;59968;51.084;16.748;2024-01-30T11:52:02;101625.75;;;12.29;44.84
72096;BME280;59968;51.084;16.748;2024-01-30T11:54:31;101623.25;;;12.29;45.20
72096;BME280;59968;51.084;16.748;2024-01-30T11:57:01;101619.33;;;12.34;44.87
72096;BME280;59968;51.084;16.748;2024-01-30T11:59:30;101615.46;;;12.38;44.90
72096;BME280;59968;51.084;16.748;2024-01-30T12:01:58;101612.55;;;12.41;44.78
72096;BME280;59968;51.084;16.748;2024-01-30T12:04:30;101613.20;;;12.43;44.39
72096;BME280;59968;51.084;16.748;2024-01-30T12:06:59;101608.61;;;12.43;44.86
72096;BME280;59968;51.084;16.748;2024-01-30T12:09:31;101606.84;;;12.45;44.97
72096;BME280;59968;51.084;16.748;2024-01-30T12:12:00;101606.44;;;12.47;44.79
72096;BME280;59968;51.084;16.748;2024-01-30T12:14:29;101603.50;;;12.52;44.96
72096;BME280;59968;51.084;16.748;2024-01-30T12:16:58;101601.19;;;12.57;44.82
72096;BME280;59968;51.084;16.748;2024-01-30T12:19:26;101599.40;;;12.65;45.20
72096;BME280;59968;51.084;16.748;2024-01-30T12:21:59;101598.44;;;12.72;45.11
72096;BME280;59968;51.084;16.748;2024-01-30T12:24:28;101598.18;;;12.77;44.61
72096;BME280;59968;51.084;16.748;2024-01-30T12:27:01;101592.61;;;12.83;44.25
72096;BME280;59968;51.084;16.748;2024-01-30T12:29:32;101588.56;;;12.87;43.67
72096;BME280;59968;51.084;16.748;2024-01-30T12:32:06;101585.55;;;12.93;43.90
72096;BME280;59968;51.084;16.748;2024-01-30T12:34:40;101582.43;;;12.93;44.30
72096;BME280;59968;51.084;16.748;2024-01-30T12:37:24;101579.64;;;12.98;44.47
72096;BME280;59968;51.084;16.748;2024-01-30T12:39:53;101571.14;;;13.01;43.47
72096;BME280;59968;51.084;16.748;2024-01-30T12:42:22;101569.77;;;12.99;43.11
72096;BME280;59968;51.084;16.748;2024-01-30T12:44:51;101569.71;;;12.97;42.43
72096;BME280;59968;51.084;16.748;2024-01-30T12:47:24;101570.16;;;12.93;42.43
72096;BME280;59968;51.084;16.748;2024-01-30T12:49:53;101569.97;;;12.89;42.65
72096;BME280;59968;51.084;16.748;2024-01-30T12:52:23;101566.84;;;12.84;42.26
72096;BME280;59968;51.084;16.748;2024-01-30T12:54:52;101564.02;;;12.80;42.13
72096;BME280;59968;51.084;16.748;2024-01-30T12:57:21;101562.13;;;12.72;42.16
72096;BME280;59968;51.084;16.748;2024-01-30T12:59:51;101560.11;;;12.62;42.14
72096;BME280;59968;51.084;16.748;2024-01-30T13:02:20;101560.73;;;12.54;41.97